createdAt,value
2023-03-03T00:01:10.459Z,77.75
2023-03-03T00:04:01.049Z,84.13
2023-03-03T00:06:51.073Z,80.00
2023-03-03T00:09:41.509Z,75.45
2023-03-03T00:12:31.563Z,86.85
2023-03-03T00:15:24.908Z,86.50
2023-03-03T00:18:22.961Z,77.25
2023-03-03T00:21:40.076Z,84.47
2023-03-03T00:24:37.287Z,84.32
2023-03-03T00:27:31.740Z,81.30
2023-03-03T00:30:26.896Z,81.75
2023-03-03T00:33:32.931Z,81.95
2023-03-03T00:36:31.728Z,84.18
2023-03-03T00:39:26.456Z,81.00
2023-03-03T00:42:18.532Z,91.60
2023-03-03T00:45:59.047Z,99.35
2023-03-03T00:48:51.036Z,91.20
2023-03-03T00:51:44.048Z,80.57
2023-03-03T00:54:34.363Z,85.50
2023-03-03T00:57:24.781Z,75.35
2023-03-03T01:00:15.673Z,91.75
2023-03-03T01:03:08.638Z,84.75
2023-03-03T01:05:59.108Z,78.63
2023-03-03T01:08:49.354Z,86.65
2023-03-03T01:11:39.674Z,89.93
2023-03-03T01:14:29.783Z,83.47
2023-03-03T01:17:20.314Z,81.68
2023-03-03T01:20:13.200Z,90.70
2023-03-03T01:23:04.212Z,90.00
2023-03-03T01:25:54.869Z,91.05
2023-03-03T01:28:45.083Z,82.55
2023-03-03T01:31:35.595Z,83.47
2023-03-03T01:34:25.748Z,89.32
2023-03-03T01:37:16.028Z,83.30
2023-03-03T01:40:08.447Z,78.75
2023-03-03T01:43:00.780Z,82.13
2023-03-03T01:45:51.904Z,94.50
2023-03-03T01:48:45.169Z,90.13
2023-03-03T01:51:42.197Z,87.77
2023-03-03T01:54:53.273Z,86.85
2023-03-03T01:57:48.808Z,99.65
2023-03-03T02:00:42.157Z,87.43
2023-03-03T02:03:33.848Z,92.68
2023-03-03T02:06:27.744Z,89.70
2023-03-03T02:12:20.512Z,78.75
2023-03-03T02:15:17.879Z,89.93
2023-03-03T02:18:14.230Z,84.88
2023-03-03T02:21:12.394Z,88.03
2023-03-03T02:24:06.223Z,86.70
2023-03-03T02:26:57.523Z,92.90
2023-03-03T02:29:47.805Z,93.47
2023-03-03T02:32:37.864Z,83.30
2023-03-03T02:35:36.930Z,84.90
2023-03-03T02:38:47.534Z,86.75
2023-03-03T02:42:10.362Z,87.75
2023-03-03T02:45:06.721Z,81.18
2023-03-03T02:47:57.078Z,94.22
2023-03-03T02:50:47.508Z,90.78
2023-03-03T02:53:37.641Z,84.47
2023-03-03T02:56:27.606Z,81.75
2023-03-03T02:59:18.742Z,84.22
2023-03-03T03:02:12.441Z,87.30
2023-03-03T03:05:02.741Z,86.57
2023-03-03T03:07:52.619Z,76.05
2023-03-03T03:10:44.007Z,86.93
2023-03-03T03:13:34.884Z,83.22
2023-03-03T03:16:25.563Z,82.97
2023-03-03T03:19:15.935Z,77.93
2023-03-03T03:22:07.670Z,81.13
2023-03-03T03:24:59.055Z,86.68
2023-03-03T03:27:49.488Z,78.13
2023-03-03T03:30:40.475Z,91.88
2023-03-03T03:33:31.479Z,85.50
2023-03-03T03:36:23.194Z,93.47
2023-03-03T03:39:14.328Z,86.55
2023-03-03T03:42:09.056Z,81.03
2023-03-03T03:44:59.221Z,82.63
2023-03-03T03:47:50.198Z,83.95
2023-03-03T03:50:40.753Z,88.90
2023-03-03T03:53:31.396Z,79.55
2023-03-03T03:56:21.692Z,80.68
2023-03-03T03:59:16.131Z,87.05
2023-03-03T04:02:06.608Z,86.35
2023-03-03T04:04:56.860Z,90.22
2023-03-03T04:07:47.178Z,89.53
2023-03-03T04:10:39.707Z,90.25
2023-03-03T04:13:32.212Z,82.20
2023-03-03T04:16:23.640Z,84.30
2023-03-03T04:19:14.372Z,81.18
2023-03-03T04:22:06.900Z,88.05
2023-03-03T04:24:57.513Z,94.57
2023-03-03T04:27:48.393Z,85.70
2023-03-03T04:30:41.101Z,84.28
2023-03-03T04:33:31.956Z,90.80
2023-03-03T04:36:23.906Z,84.40
2023-03-03T04:39:14.459Z,91.22
2023-03-03T04:42:04.999Z,90.22
2023-03-03T04:44:55.593Z,89.47
2023-03-03T04:47:45.847Z,87.57
2023-03-03T04:50:36.989Z,87.30
2023-03-03T04:53:27.873Z,87.70
2023-03-03T04:56:17.916Z,90.72
2023-03-03T04:59:08.797Z,85.72
2023-03-03T05:01:59.294Z,88.22
2023-03-03T05:04:49.400Z,100.15
2023-03-03T05:07:40.360Z,86.43
2023-03-03T05:10:30.451Z,85.82
2023-03-03T05:13:21.262Z,88.10
2023-03-03T05:16:11.193Z,92.10
2023-03-03T05:19:01.679Z,85.95
2023-03-03T05:21:52.085Z,88.88
2023-03-03T05:24:43.079Z,91.28
2023-03-03T05:27:33.043Z,89.95
2023-03-03T05:30:23.545Z,93.10
2023-03-03T05:33:15.537Z,90.47
2023-03-03T05:36:06.161Z,88.00
2023-03-03T05:38:56.447Z,94.53
2023-03-03T05:41:46.600Z,85.07
2023-03-03T05:44:36.673Z,87.32
2023-03-03T05:47:27.111Z,90.93
2023-03-03T05:50:19.055Z,84.72
2023-03-03T05:53:09.450Z,90.47
2023-03-03T05:55:59.501Z,82.55
2023-03-03T05:58:49.500Z,86.75
2023-03-03T06:01:39.555Z,91.20
2023-03-03T06:04:29.562Z,89.10
2023-03-03T06:07:19.739Z,87.57
2023-03-03T06:10:10.356Z,84.80
2023-03-03T06:13:03.034Z,86.00
2023-03-03T06:15:53.385Z,87.05
2023-03-03T06:18:43.923Z,87.47
2023-03-03T06:21:34.254Z,83.22
2023-03-03T06:24:26.593Z,85.57
2023-03-03T06:27:16.644Z,82.60
2023-03-03T06:30:07.521Z,87.50
2023-03-03T06:32:58.072Z,105.65
2023-03-03T06:35:53.619Z,106.95
2023-03-03T06:38:44.386Z,100.80
2023-03-03T06:41:34.527Z,91.10
2023-03-03T06:44:27.071Z,82.38
2023-03-03T06:47:18.666Z,86.03
2023-03-03T06:50:12.204Z,95.78
2023-03-03T06:53:14.201Z,93.47
2023-03-03T06:56:08.911Z,88.75
2023-03-03T06:59:00.797Z,92.38
2023-03-03T07:01:51.333Z,90.32
2023-03-03T07:04:41.513Z,92.10
2023-03-03T07:07:31.639Z,91.47
2023-03-03T07:10:27.471Z,94.10
2023-03-03T07:13:24.563Z,76.25
2023-03-03T07:16:17.270Z,90.18
2023-03-03T07:19:27.057Z,91.57
2023-03-03T07:22:18.635Z,87.55
2023-03-03T07:25:21.204Z,88.00
2023-03-03T07:28:29.223Z,96.88
2023-03-03T07:31:47.432Z,85.53
2023-03-03T07:34:46.339Z,81.07
2023-03-03T07:37:39.158Z,78.35
2023-03-03T07:40:38.425Z,86.30
2023-03-03T07:43:39.841Z,78.93
2023-03-03T07:46:44.319Z,81.97
2023-03-03T07:49:37.182Z,81.90
2023-03-03T07:52:42.008Z,73.90
2023-03-03T07:55:37.470Z,75.60
2023-03-03T07:58:40.335Z,79.03
2023-03-03T08:01:39.842Z,69.05
2023-03-03T08:04:52.760Z,70.05
2023-03-03T08:07:43.140Z,76.53
2023-03-03T08:10:58.288Z,62.80
2023-03-03T08:13:48.344Z,70.82
2023-03-03T08:16:38.959Z,70.35
2023-03-03T08:19:31.201Z,62.78
2023-03-03T08:22:37.889Z,62.22
2023-03-03T08:25:28.065Z,57.95
2023-03-03T08:28:18.703Z,56.72
2023-03-03T08:31:19.988Z,54.88
2023-03-03T08:34:12.498Z,54.77
2023-03-03T08:37:02.772Z,49.50
2023-03-03T08:39:52.643Z,50.65
2023-03-03T08:42:43.016Z,55.53
2023-03-03T08:45:34.092Z,56.65
2023-03-03T08:48:25.335Z,52.20
2023-03-03T08:51:15.402Z,53.83
2023-03-03T08:54:05.982Z,54.10
2023-03-03T08:56:55.995Z,58.45
2023-03-03T08:59:47.801Z,52.65
2023-03-03T09:02:38.278Z,53.20
2023-03-03T09:05:28.449Z,55.60
2023-03-03T09:08:18.694Z,54.47
2023-03-03T09:11:20.476Z,56.17
2023-03-03T09:14:13.607Z,52.15
2023-03-03T09:17:27.211Z,57.30
2023-03-03T09:20:33.737Z,56.00
2023-03-03T09:23:24.208Z,53.15
2023-03-03T09:26:39.560Z,61.13
2023-03-03T09:29:37.418Z,53.30
2023-03-03T09:32:34.845Z,52.00
2023-03-03T09:35:40.431Z,52.20
2023-03-03T09:38:32.988Z,50.72
2023-03-03T09:41:37.910Z,47.35
2023-03-03T09:44:50.408Z,51.28
2023-03-03T09:48:11.438Z,56.75
2023-03-03T09:51:04.678Z,52.92
2023-03-03T09:54:02.569Z,51.50
2023-03-03T09:57:17.486Z,52.92
2023-03-03T10:00:41.314Z,56.35
2023-03-03T10:04:28.773Z,57.33
2023-03-03T10:07:34.450Z,55.40
2023-03-03T10:11:00.438Z,52.65
2023-03-03T10:14:00.978Z,53.72
2023-03-03T10:17:26.516Z,58.92
2023-03-03T10:20:28.120Z,52.90
2023-03-03T10:23:37.834Z,57.90
2023-03-03T10:27:13.531Z,52.45
2023-03-03T10:30:18.780Z,57.15
2023-03-03T10:33:42.695Z,53.42
2023-03-03T10:37:06.585Z,46.75
2023-03-03T10:40:05.296Z,56.60
2023-03-03T10:43:32.728Z,48.67
2023-03-03T10:46:37.345Z,45.65
2023-03-03T10:49:53.781Z,45.83
2023-03-03T10:52:52.363Z,47.42
2023-03-03T10:56:11.024Z,47.08
2023-03-03T10:59:16.058Z,48.45
2023-03-03T11:02:22.788Z,45.63
2023-03-03T11:05:27.521Z,41.60
2023-03-03T11:08:42.192Z,46.33
2023-03-03T11:11:59.794Z,41.92
2023-03-03T11:14:55.831Z,47.88
2023-03-03T11:18:03.959Z,40.13
2023-03-03T11:21:23.038Z,40.63
2023-03-03T11:24:16.995Z,44.92
2023-03-03T11:27:19.080Z,41.63
2023-03-03T11:30:30.024Z,45.55
2023-03-03T11:33:33.068Z,47.45
2023-03-03T11:36:34.541Z,44.83
2023-03-03T11:39:29.488Z,44.72
2023-03-03T11:43:03.558Z,40.30
2023-03-03T11:46:03.600Z,51.35
2023-03-03T11:49:19.449Z,46.25
2023-03-03T11:52:27.348Z,48.85
2023-03-03T11:55:23.902Z,49.13
2023-03-03T11:58:42.912Z,48.53
2023-03-03T12:01:41.874Z,47.00
2023-03-03T12:04:39.123Z,47.25
2023-03-03T12:07:50.773Z,43.85
2023-03-03T12:11:03.351Z,51.40
2023-03-03T12:14:08.788Z,51.53
2023-03-03T12:17:16.152Z,49.00
2023-03-03T12:20:12.681Z,49.08
2023-03-03T12:23:15.143Z,50.55
2023-03-03T12:26:09.106Z,50.85
2023-03-03T12:29:12.373Z,49.20
2023-03-03T12:32:14.544Z,47.33
2023-03-03T12:35:21.007Z,47.92
2023-03-03T12:38:29.806Z,47.35
2023-03-03T12:41:35.179Z,50.83
2023-03-03T12:44:54.926Z,50.92
2023-03-03T12:47:50.780Z,48.92
2023-03-03T12:51:16.062Z,48.60
2023-03-03T12:54:22.139Z,50.85
2023-03-03T12:57:34.388Z,46.25
2023-03-03T13:00:59.357Z,49.22
2023-03-03T13:04:00.256Z,54.05
2023-03-03T13:07:12.068Z,47.88
2023-03-03T13:10:31.374Z,56.85
2023-03-03T13:13:40.050Z,49.08
2023-03-03T13:16:41.739Z,52.05
2023-03-03T13:19:49.099Z,50.75
2023-03-03T13:22:48.778Z,49.45
2023-03-03T13:25:52.170Z,59.10
2023-03-03T13:28:48.397Z,47.83
2023-03-03T13:31:44.962Z,52.53
2023-03-03T13:35:05.644Z,49.55
2023-03-03T13:37:57.784Z,59.47
2023-03-03T13:41:05.896Z,52.65
2023-03-03T13:44:20.219Z,50.53
2023-03-03T13:47:34.312Z,50.45
2023-03-03T13:50:36.375Z,47.58
2023-03-03T13:53:32.672Z,50.72
2023-03-03T13:56:52.359Z,54.63
2023-03-03T13:59:52.251Z,52.70
2023-03-03T14:02:42.533Z,56.70
2023-03-03T14:05:45.469Z,49.78
2023-03-03T14:08:50.467Z,53.28
2023-03-03T14:11:48.375Z,60.10
2023-03-03T14:14:50.572Z,48.40
2023-03-03T14:18:15.765Z,44.65
2023-03-03T14:21:12.351Z,52.13
2023-03-03T14:24:08.319Z,51.17
2023-03-03T14:27:00.551Z,50.28
2023-03-03T14:29:50.684Z,52.80
2023-03-03T14:32:45.718Z,49.28
2023-03-03T14:35:39.653Z,50.03
2023-03-03T14:38:32.914Z,50.40
2023-03-03T14:41:36.930Z,50.25
2023-03-03T14:44:29.831Z,53.92
2023-03-03T14:47:26.724Z,49.60
2023-03-03T14:50:53.666Z,51.63
2023-03-03T14:53:45.922Z,52.90
2023-03-03T14:56:39.355Z,51.85
2023-03-03T14:59:30.866Z,46.30
2023-03-03T15:02:29.584Z,52.22
2023-03-03T15:05:23.431Z,51.35
2023-03-03T15:08:15.852Z,51.83
2023-03-03T15:11:18.170Z,51.75
2023-03-03T15:14:17.950Z,47.35
2023-03-03T15:17:26.595Z,49.78
2023-03-03T15:20:37.096Z,49.22
2023-03-03T15:23:46.131Z,49.13
2023-03-03T15:26:59.675Z,46.35
2023-03-03T15:30:28.944Z,46.92
2023-03-03T15:33:33.699Z,45.30
2023-03-03T15:36:44.655Z,51.00
2023-03-03T15:39:50.591Z,49.78
2023-03-03T15:43:20.156Z,45.63
2023-03-03T15:46:30.054Z,45.85
2023-03-03T15:49:43.472Z,55.55
2023-03-03T15:53:00.968Z,48.15
2023-03-03T15:56:09.997Z,50.00
2023-03-03T15:59:28.446Z,52.97
2023-03-03T16:02:23.926Z,76.75
2023-03-03T16:05:34.824Z,51.05
2023-03-03T16:08:35.984Z,48.80
2023-03-03T16:11:48.354Z,50.75
2023-03-03T16:15:16.137Z,42.72
2023-03-03T16:18:58.541Z,46.20
2023-03-03T16:22:12.035Z,53.10
2023-03-03T16:25:39.682Z,46.55
2023-03-03T16:28:54.887Z,48.42
2023-03-03T16:31:58.936Z,48.13
2023-03-03T16:35:10.987Z,50.47
2023-03-03T16:38:05.526Z,49.47
2023-03-03T16:40:58.353Z,54.20
2023-03-03T16:44:24.427Z,49.33
2023-03-03T16:47:47.817Z,52.85
2023-03-03T16:50:47.987Z,48.30
2023-03-03T16:53:52.212Z,54.72
2023-03-03T16:57:17.794Z,54.78
2023-03-03T17:00:23.994Z,51.20
2023-03-03T17:03:26.471Z,55.28
2023-03-03T17:06:51.121Z,48.80
2023-03-03T17:09:59.979Z,52.35
2023-03-03T17:12:59.031Z,51.88
2023-03-03T17:16:05.302Z,52.00
2023-03-03T17:19:37.601Z,51.38
2023-03-03T17:22:37.120Z,53.42
2023-03-03T17:26:04.075Z,55.63
2023-03-03T17:29:18.451Z,51.42
2023-03-03T17:32:19.650Z,62.30
2023-03-03T17:35:19.126Z,66.05
2023-03-03T17:38:18.962Z,62.03
2023-03-03T17:42:03.825Z,64.10
2023-03-03T17:45:12.546Z,61.33
2023-03-03T17:48:31.668Z,64.25
2023-03-03T17:51:50.027Z,63.63
2023-03-03T17:54:59.117Z,64.30
2023-03-03T17:57:57.441Z,67.28
2023-03-03T18:01:17.762Z,73.65
2023-03-03T18:04:38.310Z,69.95
2023-03-03T18:07:53.152Z,63.58
2023-03-03T18:11:01.206Z,73.55
2023-03-03T18:14:02.866Z,66.85
2023-03-03T18:16:55.646Z,60.30
2023-03-03T18:20:15.523Z,67.75
2023-03-03T18:23:29.873Z,69.07
2023-03-03T18:26:36.244Z,66.38
2023-03-03T18:29:28.563Z,63.00
2023-03-03T18:32:21.689Z,80.57
2023-03-03T18:35:30.403Z,75.43
2023-03-03T18:38:30.327Z,77.20
2023-03-03T18:41:32.251Z,85.97
2023-03-03T18:44:29.631Z,71.38
2023-03-03T18:47:57.367Z,79.38
2023-03-03T18:50:50.439Z,76.68
2023-03-03T18:54:00.930Z,69.93
2023-03-03T18:56:57.325Z,72.40
2023-03-03T19:00:22.565Z,65.63
2023-03-03T19:03:37.283Z,76.65
2023-03-03T19:06:38.530Z,70.00
2023-03-03T19:09:52.365Z,66.60
2023-03-03T19:12:47.260Z,79.50
2023-03-03T19:15:48.801Z,74.13
2023-03-03T19:18:59.601Z,78.13
2023-03-03T19:22:23.401Z,80.78
2023-03-03T19:25:18.005Z,78.78
2023-03-03T19:28:14.538Z,79.32
2023-03-03T19:31:15.923Z,79.25
2023-03-03T19:34:28.088Z,69.47
2023-03-03T19:37:45.585Z,73.85
2023-03-03T19:41:00.290Z,77.35
2023-03-03T19:44:03.997Z,87.07
2023-03-03T19:47:03.295Z,74.18
2023-03-03T19:50:03.229Z,74.65
2023-03-03T19:53:11.382Z,70.70
2023-03-03T19:56:20.272Z,72.95
2023-03-03T19:59:22.587Z,74.03
2023-03-03T20:02:50.289Z,69.13
2023-03-03T20:05:51.301Z,71.72
2023-03-03T20:08:47.449Z,74.70
2023-03-03T20:12:22.338Z,78.57
2023-03-03T20:15:19.779Z,73.60
2023-03-03T20:18:34.868Z,71.95
2023-03-03T20:21:41.579Z,78.97
2023-03-03T20:24:34.471Z,77.00
2023-03-03T20:27:47.523Z,81.72
2023-03-03T20:30:50.145Z,76.93
2023-03-03T20:34:09.328Z,71.88
2023-03-03T20:37:08.058Z,73.03
2023-03-03T20:40:27.605Z,66.65
2023-03-03T20:43:20.654Z,79.35
2023-03-03T20:46:23.212Z,74.83
2023-03-03T20:49:42.929Z,78.28
2023-03-03T20:52:56.064Z,78.40
2023-03-03T20:55:46.146Z,79.43
2023-03-03T20:59:00.812Z,94.40
2023-03-03T21:02:00.344Z,71.65
2023-03-03T21:05:19.908Z,74.63
2023-03-03T21:08:10.434Z,82.05
2023-03-03T21:11:03.546Z,72.90
2023-03-03T21:13:56.722Z,74.63
2023-03-03T21:16:53.062Z,74.20
2023-03-03T21:19:43.325Z,69.85
2023-03-03T21:22:33.923Z,70.70
2023-03-03T21:25:44.375Z,77.30
2023-03-03T21:28:34.773Z,85.03
2023-03-03T21:31:25.085Z,83.05
2023-03-03T21:34:24.642Z,81.70
2023-03-03T21:37:45.094Z,79.07
2023-03-03T21:40:35.417Z,67.78
2023-03-03T21:43:47.365Z,68.88
2023-03-03T21:46:37.923Z,79.30
2023-03-03T21:49:28.837Z,80.63
2023-03-03T21:52:21.922Z,70.90
2023-03-03T21:55:12.305Z,79.63
2023-03-03T21:58:02.704Z,74.15
2023-03-03T22:00:53.259Z,72.20
2023-03-03T22:03:45.057Z,84.78
2023-03-03T22:06:37.439Z,76.82
2023-03-03T22:09:27.880Z,70.57
2023-03-03T22:12:18.491Z,76.22
2023-03-03T22:15:08.820Z,70.65
2023-03-03T22:17:59.951Z,76.07
2023-03-03T22:20:50.673Z,64.85
2023-03-03T22:23:40.815Z,64.50
2023-03-03T22:26:31.608Z,67.65
2023-03-03T22:29:22.884Z,66.88
2023-03-03T22:32:13.586Z,73.00
2023-03-03T22:35:04.215Z,75.97
2023-03-03T22:37:54.477Z,76.40
2023-03-03T22:40:44.582Z,75.57
2023-03-03T22:43:35.068Z,71.80
2023-03-03T22:46:25.455Z,71.95
2023-03-03T22:49:15.914Z,69.97
2023-03-03T22:52:06.118Z,65.78
2023-03-03T22:54:57.916Z,70.38
2023-03-03T22:57:47.908Z,71.35
2023-03-03T23:00:38.471Z,66.18
2023-03-03T23:03:28.850Z,76.55
2023-03-03T23:06:19.166Z,69.10
2023-03-03T23:09:09.333Z,71.45
2023-03-03T23:11:59.706Z,71.80
2023-03-03T23:14:49.976Z,84.28
2023-03-03T23:17:42.732Z,75.68
2023-03-03T23:20:33.449Z,69.35
2023-03-03T23:23:23.584Z,73.60
2023-03-03T23:26:14.341Z,65.57
2023-03-03T23:29:05.317Z,73.72
2023-03-03T23:31:55.896Z,74.05
2023-03-03T23:34:46.000Z,63.33
2023-03-03T23:37:36.588Z,69.13
2023-03-03T23:40:27.095Z,66.40
2023-03-03T23:43:17.441Z,65.70
2023-03-03T23:46:07.698Z,64.97
2023-03-03T23:48:58.146Z,67.78
2023-03-03T23:51:48.258Z,75.22
2023-03-03T23:54:38.314Z,69.78
2023-03-03T23:57:28.914Z,70.53
